Time;durP1;ratioP1;P1;durP2;ratioP2;P2;SDS_P1;SDS_P2;PMS_P1;PMS_P2;Temp;Humidity;BMP_temperature;BMP_pressure;BME280_temperature;BME280_humidity;BME280_pressure;Samples;Min_cycle;Max_cycle;Signal;HPM_P1;HPM_P2
2021/06/19 00:00:39;;;;;;;16.50;14.63;;;;;;;;;;6267179;28;20116;-84
2021/06/19 00:03:41;;;;;;;17.23;15.43;;;;;;;;;;6249706;28;20041;-83
2021/06/19 00:06:42;;;;;;;16.52;14.85;;;;;;;;;;6293961;28;20113;-82
2021/06/19 00:09:44;;;;;;;16.75;15.05;;;;;;;;;;6297513;28;20050;-82
2021/06/19 00:12:48;;;;;;;17.52;14.85;;;;;;;;;;6291523;28;20063;-82
2021/06/19 00:15:50;;;;;;;18.55;15.65;;;;;;;;;;6289367;28;20037;-83
2021/06/19 00:18:52;;;;;;;17.25;15.43;;;;;;;;;;6272100;28;20043;-83
2021/06/19 00:21:53;;;;;;;18.88;14.68;;;;;;;;;;6291228;28;20051;-82
2021/06/19 00:24:55;;;;;;;16.08;14.35;;;;;;;;;;6271831;28;20037;-83
2021/06/19 00:27:56;;;;;;;17.88;15.52;;;;;;;;;;6273515;28;20053;-83
2021/06/19 00:30:58;;;;;;;19.67;15.88;;;;;;;;;;6272715;28;20420;-83
2021/06/19 00:34:00;;;;;;;16.67;14.63;;;;;;;;;;6261250;28;20676;-82
2021/06/19 00:37:02;;;;;;;17.73;15.83;;;;;;;;;;6265888;28;20136;-83
2021/06/19 00:40:07;;;;;;;17.27;15.45;;;;;;;;;;6250686;28;20142;-83
2021/06/19 00:43:09;;;;;;;18.52;15.10;;;;;;;;;;6289234;28;20036;-81
2021/06/19 00:46:10;;;;;;;18.02;14.85;;;;;;;;;;6289086;28;20498;-82
2021/06/19 00:49:12;;;;;;;18.42;15.43;;;;;;;;;;6236163;28;20041;-82
2021/06/19 00:52:13;;;;;;;17.13;15.38;;;;;;;;;;6265184;28;20047;-82
2021/06/19 00:55:15;;;;;;;20.55;16.60;;;;;;;;;;6291827;28;20036;-82
2021/06/19 00:58:17;;;;;;;19.13;14.33;;;;;;;;;;6318026;28;20040;-82
2021/06/19 01:01:19;;;;;;;18.83;14.63;;;;;;;;;;6299442;28;20040;-83
2021/06/19 01:04:21;;;;;;;18.00;16.17;;;;;;;;;;6316441;28;20496;-82
2021/06/19 01:07:23;;;;;;;18.58;16.77;;;;;;;;;;6294327;28;20123;-83
2021/06/19 01:10:26;;;;;;;18.95;16.95;;;;;;;;;;6265395;28;20055;-83
2021/06/19 01:13:29;;;;;;;18.17;15.75;;;;;;;;;;6285794;28;20538;-83
2021/06/19 01:16:31;;;;;;;18.67;16.17;;;;;;;;;;6302218;28;20051;-83
2021/06/19 01:19:33;;;;;;;17.73;15.57;;;;;;;;;;6316932;28;20050;-82
2021/06/19 01:22:37;;;;;;;20.30;17.88;;;;;;;;;;6277133;28;20036;-83
2021/06/19 01:25:39;;;;;;;21.17;17.60;;;;;;;;;;6278576;28;20040;-82
2021/06/19 01:28:43;;;;;;;19.70;16.33;;;;;;;;;;6301337;28;20052;-83
2021/06/19 01:31:44;;;;;;;17.05;14.70;;;;;;;;;;6300314;28;20044;-83
2021/06/19 01:34:46;;;;;;;17.23;15.38;;;;;;;;;;6318626;28;20032;-82
2021/06/19 01:37:52;;;;;;;19.48;17.48;;;;;;;;;;6283933;28;20044;-83
2021/06/19 01:40:53;;;;;;;20.48;17.15;;;;;;;;;;6280191;28;20052;-83
2021/06/19 01:44:03;;;;;;;19.00;16.98;;;;;;;;;;6296347;28;20079;-82
2021/06/19 01:47:04;;;;;;;17.88;15.98;;;;;;;;;;6293554;28;20047;-81
2021/06/19 01:50:09;;;;;;;19.50;17.45;;;;;;;;;;6265334;28;20045;-82
2021/06/19 01:53:11;;;;;;;18.58;16.67;;;;;;;;;;6267390;28;20048;-81
2021/06/19 01:56:13;;;;;;;16.80;15.05;;;;;;;;;;6273948;28;20710;-82
2021/06/19 01:59:15;;;;;;;22.20;17.35;;;;;;;;;;6268658;28;20044;-83
2021/06/19 02:02:19;;;;;;;19.95;17.83;;;;;;;;;;6266768;28;20064;-83
2021/06/19 02:05:22;;;;;;;21.48;19.27;;;;;;;;;;6271196;28;20047;-82
2021/06/19 02:08:24;;;;;;;;;;;;;;;;;;6275133;28;20042;-82
2021/06/19 02:11:26;;;;;;;22.08;19.08;;;;;;;;;;6250517;28;19931;-83
2021/06/19 02:14:27;;;;;;;21.52;19.25;;;;;;;;;;6269661;28;20048;-82
2021/06/19 02:17:29;;;;;;;22.30;19.95;;;;;;;;;;6284407;28;20051;-82
2021/06/19 02:20:31;;;;;;;22.35;19.73;;;;;;;;;;6289047;28;20413;-81
2021/06/19 02:23:32;;;;;;;22.83;19.27;;;;;;;;;;6276524;28;20379;-83
2021/06/19 02:26:34;;;;;;;22.65;19.20;;;;;;;;;;6274839;28;20046;-82
2021/06/19 02:29:36;;;;;;;24.25;18.48;;;;;;;;;;6241678;28;20052;-84
2021/06/19 02:32:38;;;;;;;18.95;16.45;;;;;;;;;;6260052;28;20049;-83
2021/06/19 02:35:44;;;;;;;21.90;17.73;;;;;;;;;;6273988;28;20116;-84
2021/06/19 02:38:46;;;;;;;20.95;17.92;;;;;;;;;;6292917;28;20041;-83
2021/06/19 02:41:47;;;;;;;19.88;17.48;;;;;;;;;;6267926;28;20110;-84
2021/06/19 02:44:49;;;;;;;21.70;19.15;;;;;;;;;;6283122;28;20044;-84
2021/06/19 02:47:54;;;;;;;22.90;19.60;;;;;;;;;;6278941;28;20052;-84
2021/06/19 02:50:56;;;;;;;24.27;20.40;;;;;;;;;;6273204;28;20050;-83
2021/06/19 02:53:57;;;;;;;22.55;20.05;;;;;;;;;;6240522;28;20045;-84
2021/06/19 02:56:59;;;;;;;22.63;20.13;;;;;;;;;;6238770;28;20055;-83
2021/06/19 03:00:03;;;;;;;24.00;20.27;;;;;;;;;;6252794;28;20060;-84
2021/06/19 03:03:06;;;;;;;24.52;20.05;;;;;;;;;;6242033;28;20641;-84
2021/06/19 03:06:07;;;;;;;24.63;19.52;;;;;;;;;;6279631;28;20036;-84
2021/06/19 03:09:09;;;;;;;22.58;18.33;;;;;;;;;;6265629;28;20052;-84
2021/06/19 03:12:11;;;;;;;21.92;19.30;;;;;;;;;;6241915;28;20079;-84
2021/06/19 03:15:13;;;;;;;22.80;19.27;;;;;;;;;;6259695;28;20207;-83
2021/06/19 03:18:15;;;;;;;22.42;18.73;;;;;;;;;;6253661;28;20041;-84
2021/06/19 03:21:16;;;;;;;22.60;19.23;;;;;;;;;;6270804;28;20044;-82
2021/06/19 03:24:18;;;;;;;22.58;17.55;;;;;;;;;;6289513;28;20052;-83
2021/06/19 03:27:20;;;;;;;18.83;16.23;;;;;;;;;;6266647;28;20429;-84
2021/06/19 03:30:23;;;;;;;16.50;14.80;;;;;;;;;;6262832;28;20051;-84
2021/06/19 03:33:25;;;;;;;20.70;17.25;;;;;;;;;;6280136;28;20029;-84
2021/06/19 03:36:28;;;;;;;25.13;20.35;;;;;;;;;;6265425;28;20652;-84
2021/06/19 03:39:32;;;;;;;21.63;17.83;;;;;;;;;;6265132;28;20040;-84
2021/06/19 03:42:33;;;;;;;21.70;18.98;;;;;;;;;;6240976;28;20064;-84
2021/06/19 03:45:36;;;;;;;21.67;17.90;;;;;;;;;;6234768;28;20131;-84
2021/06/19 03:48:37;;;;;;;17.48;12.88;;;;;;;;;;6256932;28;20525;-84
2021/06/19 03:51:39;;;;;;;14.82;12.25;;;;;;;;;;6264319;28;20044;-83
2021/06/19 03:54:40;;;;;;;17.15;12.07;;;;;;;;;;6263731;28;20040;-83
2021/06/19 03:57:42;;;;;;;14.13;10.65;;;;;;;;;;6239730;28;20517;-83
2021/06/19 04:00:44;;;;;;;12.85;11.05;;;;;;;;;;6241484;28;20079;-84
2021/06/19 04:03:45;;;;;;;16.80;11.68;;;;;;;;;;6244251;28;20131;-83
2021/06/19 04:06:47;;;;;;;17.17;13.40;;;;;;;;;;6255986;28;20041;-84
2021/06/19 04:09:52;;;;;;;18.33;13.13;;;;;;;;;;6268644;28;20069;-84
2021/06/19 04:12:54;;;;;;;16.35;13.73;;;;;;;;;;6250825;28;20053;-84
2021/06/19 04:15:56;;;;;;;17.92;15.48;;;;;;;;;;6263260;28;21746;-84
2021/06/19 04:18:58;;;;;;;20.10;16.08;;;;;;;;;;6263280;28;20060;-84
2021/06/19 04:21:59;;;;;;;17.33;14.38;;;;;;;;;;6280285;28;20494;-84
2021/06/19 04:25:02;;;;;;;15.75;14.15;;;;;;;;;;6273489;28;20044;-84
2021/06/19 04:28:04;;;;;;;;;;;;;;;;;;6278990;28;20063;-84
2021/06/19 04:31:06;;;;;;;14.25;11.25;;;;;;;;;;6262104;28;20017;-82
2021/06/19 04:34:10;;;;;;;13.88;11.48;;;;;;;;;;6271213;28;20054;-82
2021/06/19 04:37:13;;;;;;;16.70;13.05;;;;;;;;;;6271158;28;20044;-84
2021/06/19 04:46:49;;;;;;;20.85;16.25;;;;;;;;;;6288971;28;20186;-83
2021/06/19 04:49:55;;;;;;;19.27;17.23;;;;;;;;;;6256955;28;20049;-83
2021/06/19 04:52:58;;;;;;;21.20;18.27;;;;;;;;;;6258536;28;20428;-83
2021/06/19 04:56:03;;;;;;;23.67;17.90;;;;;;;;;;6280220;28;20045;-83
2021/06/19 04:59:05;;;;;;;20.48;17.63;;;;;;;;;;6261785;28;20045;-84
2021/06/19 05:02:07;;;;;;;20.67;17.60;;;;;;;;;;6284485;28;20037;-84
2021/06/19 05:05:09;;;;;;;18.10;15.95;;;;;;;;;;6269410;28;20051;-83
2021/06/19 05:08:11;;;;;;;19.33;16.67;;;;;;;;;;6269094;28;20145;-84
2021/06/19 05:11:12;;;;;;;20.70;16.70;;;;;;;;;;6297776;28;20051;-84
2021/06/19 05:14:17;;;;;;;20.73;17.55;;;;;;;;;;6276756;28;20045;-84
2021/06/19 05:17:20;;;;;;;18.33;15.45;;;;;;;;;;6263745;28;20052;-83
2021/06/19 05:20:22;;;;;;;20.48;16.90;;;;;;;;;;6294038;28;20064;-83
2021/06/19 05:23:24;;;;;;;16.88;14.32;;;;;;;;;;6272142;28;20041;-84
2021/06/19 05:26:26;;;;;;;19.50;15.23;;;;;;;;;;6288848;28;20044;-84
2021/06/19 05:29:27;;;;;;;16.35;14.65;;;;;;;;;;6286686;28;20100;-87
2021/06/19 05:32:29;;;;;;;16.67;14.93;;;;;;;;;;6265397;28;20044;-88
2021/06/19 05:35:31;;;;;;;19.58;14.50;;;;;;;;;;6263837;28;20049;-88
2021/06/19 05:38:32;;;;;;;19.83;14.87;;;;;;;;;;6264111;28;20045;-87
2021/06/19 05:41:35;;;;;;;16.80;13.35;;;;;;;;;;6239859;28;20053;-88
2021/06/19 05:44:36;;;;;;;16.13;14.43;;;;;;;;;;6245923;28;20098;-87
2021/06/19 05:47:38;;;;;;;22.38;15.18;;;;;;;;;;6250183;28;20118;-87
2021/06/19 05:50:40;;;;;;;16.03;14.43;;;;;;;;;;6300532;28;20468;-85
2021/06/19 05:53:44;;;;;;;17.17;14.52;;;;;;;;;;6292276;28;20120;-85
2021/06/19 05:56:48;;;;;;;18.10;14.95;;;;;;;;;;6292253;28;20075;-85
2021/06/19 05:59:50;;;;;;;16.77;14.52;;;;;;;;;;6275484;28;20630;-84
2021/06/19 06:02:51;;;;;;;15.82;14.05;;;;;;;;;;6271679;28;20044;-82
2021/06/19 06:05:53;;;;;;;16.83;13.55;;;;;;;;;;6273246;28;20072;-86
2021/06/19 06:08:55;;;;;;;14.90;13.07;;;;;;;;;;6252727;28;20064;-87
2021/06/19 06:12:00;;;;;;;14.48;11.70;;;;;;;;;;6263745;28;20049;-86
2021/06/19 06:15:04;;;;;;;14.50;11.30;;;;;;;;;;6240495;28;20060;-85
2021/06/19 06:18:06;;;;;;;14.93;11.82;;;;;;;;;;6243884;28;20387;-85
2021/06/19 06:21:07;;;;;;;10.13;9.13;;;;;;;;;;6261783;28;20576;-86
2021/06/19 06:24:09;;;;;;;13.43;9.03;;;;;;;;;;6253574;28;20138;-85
2021/06/19 06:27:11;;;;;;;10.07;8.50;;;;;;;;;;6243005;28;20145;-83
2021/06/19 06:30:13;;;;;;;8.38;7.47;;;;;;;;;;6254409;28;20179;-82
2021/06/19 06:33:15;;;;;;;11.75;6.40;;;;;;;;;;6249915;28;20545;-81
2021/06/19 06:36:16;;;;;;;9.93;6.78;;;;;;;;;;6269114;28;20513;-84
2021/06/19 06:39:18;;;;;;;7.22;6.03;;;;;;;;;;6275382;28;20037;-83
2021/06/19 06:42:20;;;;;;;7.93;6.80;;;;;;;;;;6252145;28;20134;-83
2021/06/19 06:45:22;;;;;;;9.85;6.03;;;;;;;;;;6269835;28;20459;-83
2021/06/19 06:48:24;;;;;;;8.48;6.03;;;;;;;;;;6271649;28;20059;-81
2021/06/19 06:51:25;;;;;;;8.63;5.72;;;;;;;;;;6270241;28;20041;-83
2021/06/19 06:54:28;;;;;;;9.80;6.15;;;;;;;;;;6289576;28;20051;-82
2021/06/19 06:57:29;;;;;;;6.93;5.60;;;;;;;;;;6246468;28;20133;-80
2021/06/19 07:00:31;;;;;;;8.45;6.00;;;;;;;;;;6271734;28;20127;-82
2021/06/19 07:03:32;;;;;;;6.53;4.97;;;;;;;;;;6269820;28;22434;-82
2021/06/19 07:06:34;;;;;;;8.70;5.70;;;;;;;;;;6253520;28;20055;-84
2021/06/19 07:09:36;;;;;;;9.63;5.00;;;;;;;;;;6251162;28;20636;-84
2021/06/19 07:12:41;;;;;;;6.80;4.70;;;;;;;;;;6265281;28;20410;-84
2021/06/19 07:15:44;;;;;;;6.60;3.97;;;;;;;;;;6277665;28;20500;-83
2021/06/19 07:18:46;;;;;;;5.22;4.35;;;;;;;;;;6273336;28;20051;-85
2021/06/19 07:21:47;;;;;;;6.00;4.70;;;;;;;;;;6260709;28;20107;-82
2021/06/19 07:24:49;;;;;;;6.40;4.32;;;;;;;;;;6248166;28;20443;-85
2021/06/19 07:27:54;;;;;;;5.30;4.30;;;;;;;;;;6277138;28;20047;-83
2021/06/19 07:30:55;;;;;;;5.32;3.97;;;;;;;;;;6258017;28;20064;-82
2021/06/19 07:33:57;;;;;;;5.35;4.55;;;;;;;;;;6254424;28;20049;-83
2021/06/19 07:36:58;;;;;;;6.37;4.23;;;;;;;;;;6267588;28;20053;-82
2021/06/19 07:40:00;;;;;;;5.38;3.85;;;;;;;;;;6259044;28;20045;-81
2021/06/19 07:43:02;;;;;;;3.80;3.33;;;;;;;;;;6296279;28;22032;-84
2021/06/19 07:46:03;;;;;;;5.50;3.40;;;;;;;;;;6274180;28;20056;-85
2021/06/19 07:49:05;;;;;;;4.25;3.60;;;;;;;;;;6267387;28;20462;-84
2021/06/19 07:52:07;;;;;;;4.57;2.97;;;;;;;;;;6270552;28;20072;-83
2021/06/19 07:55:09;;;;;;;3.70;3.40;;;;;;;;;;6271720;28;20115;-85
2021/06/19 07:58:11;;;;;;;3.70;3.08;;;;;;;;;;6295724;28;20124;-83
2021/06/19 08:01:13;;;;;;;5.75;3.17;;;;;;;;;;6276603;28;20044;-84
2021/06/19 08:04:14;;;;;;;3.77;3.00;;;;;;;;;;6287859;28;20041;-85
2021/06/19 08:07:16;;;;;;;5.57;3.50;;;;;;;;;;6251137;28;20507;-85
2021/06/19 08:10:17;;;;;;;3.73;2.90;;;;;;;;;;6271929;28;20124;-84
2021/06/19 08:13:20;;;;;;;3.40;2.90;;;;;;;;;;6271582;28;20053;-85
2021/06/19 08:16:22;;;;;;;5.88;3.20;;;;;;;;;;6249859;28;20490;-84
2021/06/19 08:19:23;;;;;;;4.72;3.58;;;;;;;;;;6268570;28;20041;-83
2021/06/19 08:22:25;;;;;;;3.63;2.97;;;;;;;;;;6266556;28;20547;-84
2021/06/19 08:25:27;;;;;;;3.63;2.80;;;;;;;;;;6271957;28;20044;-85
2021/06/19 08:28:32;;;;;;;7.88;3.30;;;;;;;;;;6291219;28;20447;-83
2021/06/19 08:31:39;;;;;;;4.68;3.00;;;;;;;;;;6274726;28;20120;-85
2021/06/19 08:34:41;;;;;;;4.03;3.35;;;;;;;;;;6254887;28;20045;-84
2021/06/19 08:37:46;;;;;;;4.55;3.00;;;;;;;;;;6245129;28;20494;-84
2021/06/19 08:40:48;;;;;;;4.43;2.90;;;;;;;;;;6259351;28;20072;-85
2021/06/19 08:43:50;;;;;;;3.67;2.88;;;;;;;;;;6240985;28;20045;-84
2021/06/19 08:46:58;;;;;;;3.00;2.70;;;;;;;;;;6253307;28;20041;-84
2021/06/19 08:50:03;;;;;;;3.50;2.95;;;;;;;;;;6278619;28;20112;-84
2021/06/19 08:53:05;;;;;;;2.80;2.60;;;;;;;;;;6290553;28;20040;-84
2021/06/19 08:56:06;;;;;;;4.38;2.88;;;;;;;;;;6274315;28;20545;-84
2021/06/19 08:59:09;;;;;;;5.00;2.75;;;;;;;;;;6263692;28;20179;-85
2021/06/19 09:02:11;;;;;;;3.25;2.95;;;;;;;;;;6267152;28;20652;-87
2021/06/19 09:05:14;;;;;;;7.05;3.10;;;;;;;;;;6286732;28;20041;-82
2021/06/19 09:08:16;;;;;;;3.30;2.83;;;;;;;;;;6292070;28;20048;-85
2021/06/19 09:11:33;;;;;;;3.25;2.80;;;;;;;;;;6282623;28;20170;-85
2021/06/19 09:14:34;;;;;;;3.28;2.80;;;;;;;;;;6252757;28;20040;-85
2021/06/19 09:17:36;;;;;;;3.30;2.65;;;;;;;;;;6252618;28;20246;-85
2021/06/19 09:20:58;;;;;;;4.10;2.80;;;;;;;;;;6279765;28;20056;-84
2021/06/19 09:23:59;;;;;;;3.55;2.97;;;;;;;;;;6254886;28;20057;-84
2021/06/19 09:27:01;;;;;;;3.80;2.97;;;;;;;;;;6259520;28;20049;-86
2021/06/19 09:30:17;;;;;;;3.75;2.83;;;;;;;;;;6270893;28;20569;-85
2021/06/19 09:33:19;;;;;;;4.05;2.88;;;;;;;;;;6269264;28;20045;-86
2021/06/19 09:36:37;;;;;;;5.28;2.50;;;;;;;;;;6248738;28;20276;-85
2021/06/19 09:39:38;;;;;;;3.90;2.58;;;;;;;;;;6243562;28;20042;-85
2021/06/19 09:42:40;;;;;;;4.55;2.72;;;;;;;;;;6246806;28;20041;-83
2021/06/19 09:45:57;;;;;;;2.47;2.28;;;;;;;;;;6231336;28;20499;-84
2021/06/19 09:49:16;;;;;;;3.08;2.50;;;;;;;;;;6260229;28;20052;-84
2021/06/19 09:52:28;;;;;;;2.50;2.30;;;;;;;;;;6245646;28;20048;-84
2021/06/19 09:55:29;;;;;;;2.95;2.08;;;;;;;;;;6252646;28;20047;-86
2021/06/19 09:58:40;;;;;;;3.00;2.00;;;;;;;;;;6260132;28;20051;-85
2021/06/19 10:01:42;;;;;;;2.45;2.25;;;;;;;;;;6296187;28;20111;-84
2021/06/19 10:04:52;;;;;;;2.60;2.20;;;;;;;;;;6296949;28;20052;-84
2021/06/19 10:07:56;;;;;;;2.42;2.15;;;;;;;;;;6293942;28;20494;-84
2021/06/19 10:10:58;;;;;;;2.70;1.92;;;;;;;;;;6285509;28;20127;-84
2021/06/19 10:14:03;;;;;;;2.90;1.98;;;;;;;;;;6278687;28;20268;-85
2021/06/19 10:17:06;;;;;;;3.78;2.50;;;;;;;;;;6296123;28;20049;-84
2021/06/19 10:20:13;;;;;;;2.67;2.38;;;;;;;;;;6261493;28;20037;-82
2021/06/19 10:23:15;;;;;;;4.30;2.85;;;;;;;;;;6294074;28;20452;-85
2021/06/19 10:26:24;;;;;;;2.60;2.40;;;;;;;;;;6274806;28;20047;-84
2021/06/19 10:29:27;;;;;;;2.63;2.35;;;;;;;;;;6298947;28;20052;-85
2021/06/19 10:32:41;;;;;;;4.10;2.25;;;;;;;;;;6299129;28;20042;-86
2021/06/19 10:35:52;;;;;;;2.60;2.35;;;;;;;;;;6289389;28;20040;-84
2021/06/19 10:38:56;;;;;;;2.92;2.25;;;;;;;;;;6291864;28;20628;-84
2021/06/19 10:41:58;;;;;;;2.55;2.35;;;;;;;;;;6248138;28;20049;-86
2021/06/19 10:45:05;;;;;;;3.53;2.50;;;;;;;;;;6257683;28;20124;-85
2021/06/19 10:48:08;;;;;;;1.95;1.85;;;;;;;;;;6279585;28;20182;-84
2021/06/19 10:51:28;;;;;;;2.47;2.10;;;;;;;;;;6266381;28;20060;-85
2021/06/19 10:54:30;;;;;;;3.13;2.00;;;;;;;;;;6289977;28;20093;-85
2021/06/19 10:57:49;;;;;;;3.95;1.95;;;;;;;;;;6252586;28;20171;-84
2021/06/19 11:00:52;;;;;;;2.53;2.10;;;;;;;;;;6263937;28;20055;-86
2021/06/19 11:03:56;;;;;;;2.75;2.03;;;;;;;;;;6265428;28;20056;-84
2021/06/19 11:06:58;;;;;;;3.42;2.22;;;;;;;;;;6245898;28;20112;-86
2021/06/19 11:10:00;;;;;;;3.65;2.55;;;;;;;;;;6235456;28;20607;-85
2021/06/19 11:13:30;;;;;;;3.83;2.20;;;;;;;;;;6283681;28;20044;-85
2021/06/19 11:16:31;;;;;;;4.47;2.50;;;;;;;;;;6266079;28;20049;-84
2021/06/19 11:19:34;;;;;;;;;;;;;;;;;;6268047;28;20040;-85
2021/06/19 11:22:42;;;;;;;;;;;;;;;;;;6317610;28;20014;-86
2021/06/19 11:25:54;;;;;;;3.17;2.25;;;;;;;;;;6315409;28;19924;-85
2021/06/19 11:28:55;;;;;;;6.88;2.30;;;;;;;;;;6287905;28;20510;-85
2021/06/19 11:31:58;;;;;;;3.60;2.22;;;;;;;;;;6292130;28;20141;-85
2021/06/19 11:35:00;;;;;;;;;;;;;;;;;;6291468;28;20149;-85
2021/06/19 11:38:02;;;;;;;3.97;2.50;;;;;;;;;;6290921;28;19954;-85
2021/06/19 11:41:12;;;;;;;2.40;2.17;;;;;;;;;;6289699;28;20048;-87
2021/06/19 11:44:16;;;;;;;2.55;1.90;;;;;;;;;;6290530;28;20040;-85
2021/06/19 11:47:18;;;;;;;2.70;2.17;;;;;;;;;;6292177;28;20043;-86
2021/06/19 11:50:19;;;;;;;3.42;2.05;;;;;;;;;;6288545;28;20044;-84
2021/06/19 11:53:38;;;;;;;3.67;2.00;;;;;;;;;;6272933;28;20044;-85
2021/06/19 11:56:41;;;;;;;3.85;2.38;;;;;;;;;;6290295;28;20033;-85
2021/06/19 11:59:43;;;;;;;3.80;1.95;;;;;;;;;;6271318;28;20072;-85
2021/06/19 12:02:50;;;;;;;2.10;1.90;;;;;;;;;;6289242;28;20051;-85
2021/06/19 12:05:52;;;;;;;3.08;2.25;;;;;;;;;;6301183;28;20062;-85
2021/06/19 12:08:55;;;;;;;4.03;2.33;;;;;;;;;;6315417;28;20044;-86
2021/06/19 12:11:59;;;;;;;5.88;2.25;;;;;;;;;;6268590;28;20141;-85
2021/06/19 12:15:00;;;;;;;4.13;2.33;;;;;;;;;;6282932;28;20061;-85
2021/06/19 12:18:04;;;;;;;;;;;;;;;;;;6290092;28;20055;-86
2021/06/19 12:21:08;;;;;;;3.25;2.40;;;;;;;;;;6309583;28;19920;-85
2021/06/19 12:24:25;;;;;;;2.20;2.10;;;;;;;;;;6298893;28;20043;-86
2021/06/19 12:27:27;;;;;;;2.95;2.25;;;;;;;;;;6264906;28;20840;-85
2021/06/19 12:30:30;;;;;;;3.90;2.30;;;;;;;;;;6263755;28;20044;-85
2021/06/19 12:33:33;;;;;;;4.82;2.38;;;;;;;;;;6268482;28;20080;-86
2021/06/19 12:36:35;;;;;;;4.22;2.40;;;;;;;;;;6288774;28;20040;-83
2021/06/19 12:39:38;;;;;;;4.10;2.45;;;;;;;;;;6270965;28;20143;-85
2021/06/19 12:43:00;;;;;;;2.95;2.17;;;;;;;;;;6288245;28;20162;-85
2021/06/19 12:46:01;;;;;;;;;;;;;;;;;;6289887;28;20053;-86
2021/06/19 12:49:05;;;;;;;3.45;1.92;;;;;;;;;;6289925;28;20878;-85
2021/06/19 12:52:07;;;;;;;3.75;2.40;;;;;;;;;;6299573;28;20188;-86
2021/06/19 12:55:13;;;;;;;2.85;2.50;;;;;;;;;;6316884;28;20104;-85
2021/06/19 12:58:17;;;;;;;4.93;2.65;;;;;;;;;;6295747;28;20040;-85
2021/06/19 13:01:27;;;;;;;6.38;2.90;;;;;;;;;;6294833;28;20666;-84
2021/06/19 13:04:29;;;;;;;4.38;2.20;;;;;;;;;;6278481;28;20059;-87
2021/06/19 13:07:32;;;;;;;5.22;2.50;;;;;;;;;;6279877;28;20636;-86
2021/06/19 13:10:33;;;;;;;4.50;2.47;;;;;;;;;;6268480;28;20108;-87
2021/06/19 13:13:44;;;;;;;6.28;2.90;;;;;;;;;;6286877;28;20086;-86
2021/06/19 13:16:45;;;;;;;4.80;2.63;;;;;;;;;;6265591;28;20104;-86
2021/06/19 13:19:47;;;;;;;;;;;;;;;;;;6281158;28;20052;-85
2021/06/19 13:23:14;;;;;;;5.70;2.80;;;;;;;;;;6297938;28;20416;-87
2021/06/19 13:26:28;;;;;;;4.13;2.45;;;;;;;;;;6287469;28;20498;-85
2021/06/19 13:29:30;;;;;;;4.43;2.53;;;;;;;;;;6277621;28;20106;-85
2021/06/19 13:32:48;;;;;;;2.90;2.50;;;;;;;;;;6275575;28;20575;-85
2021/06/19 13:35:50;;;;;;;4.00;2.85;;;;;;;;;;6291485;28;20120;-86
2021/06/19 13:38:53;;;;;;;;;;;;;;;;;;6279485;28;20044;-86
2021/06/19 13:41:57;;;;;;;5.20;2.90;;;;;;;;;;6297779;28;19974;-85
2021/06/19 13:45:03;;;;;;;10.45;9.23;;;;;;;;;;6297646;28;20076;-84
2021/06/19 13:48:05;;;;;;;3.65;2.50;;;;;;;;;;6262995;28;20050;-85
2021/06/19 13:51:10;;;;;;;4.15;2.88;;;;;;;;;;6260734;28;20048;-86
2021/06/19 13:54:12;;;;;;;4.80;2.40;;;;;;;;;;6266346;28;20052;-85
2021/06/19 13:57:19;;;;;;;4.72;2.83;;;;;;;;;;6265746;28;20045;-86
2021/06/19 14:00:20;;;;;;;5.07;2.75;;;;;;;;;;6264968;28;20037;-86
2021/06/19 14:03:22;;;;;;;4.95;2.90;;;;;;;;;;6248598;28;20124;-85
2021/06/19 14:06:23;;;;;;;;;;;;;;;;;;6258451;28;20406;-85
2021/06/19 14:09:25;;;;;;;4.47;3.17;;;;;;;;;;6271649;28;19921;-85
2021/06/19 14:12:27;;;;;;;3.85;2.95;;;;;;;;;;6289574;28;20049;-85
2021/06/19 14:15:28;;;;;;;3.50;3.10;;;;;;;;;;6272944;28;20045;-84
2021/06/19 14:18:30;;;;;;;;;;;;;;;;;;6291510;28;20124;-86
2021/06/19 14:21:32;;;;;;;;;;;;;;;;;;6291799;28;20066;-87
2021/06/19 14:24:34;;;;;;;5.75;3.30;;;;;;;;;;6288288;28;19920;-88
2021/06/19 14:27:36;;;;;;;5.53;3.70;;;;;;;;;;6288472;28;20044;-84
2021/06/19 14:30:38;;;;;;;5.90;3.30;;;;;;;;;;6275229;28;20186;-86
2021/06/19 14:33:41;;;;;;;5.80;3.63;;;;;;;;;;6289047;28;20559;-86
2021/06/19 14:36:42;;;;;;;3.40;3.08;;;;;;;;;;6274263;28;20127;-86
2021/06/19 14:39:44;;;;;;;3.45;3.10;;;;;;;;;;6267901;28;20040;-85
2021/06/19 14:42:45;;;;;;;3.85;3.00;;;;;;;;;;6275432;28;20123;-84
2021/06/19 14:45:47;;;;;;;4.88;3.35;;;;;;;;;;6294690;28;20110;-84
2021/06/19 14:48:49;;;;;;;6.25;3.35;;;;;;;;;;6256975;28;20053;-84
2021/06/19 14:51:52;;;;;;;5.18;3.58;;;;;;;;;;6287394;28;20056;-85
2021/06/19 14:54:55;;;;;;;5.18;3.45;;;;;;;;;;6288711;28;20040;-84
2021/06/19 14:57:57;;;;;;;5.60;3.58;;;;;;;;;;6293602;28;20105;-85
2021/06/19 15:01:01;;;;;;;5.10;3.42;;;;;;;;;;6283555;28;20052;-84
2021/06/19 15:04:05;;;;;;;5.82;3.65;;;;;;;;;;6290912;28;20044;-85
2021/06/19 15:07:07;;;;;;;4.28;3.53;;;;;;;;;;6279007;28;20493;-86
2021/06/19 15:10:12;;;;;;;4.03;3.38;;;;;;;;;;6284781;28;20046;-86
2021/06/19 15:13:15;;;;;;;4.72;3.58;;;;;;;;;;6316542;28;20051;-86
2021/06/19 15:16:16;;;;;;;6.00;3.50;;;;;;;;;;6295622;28;20064;-86
2021/06/19 15:19:20;;;;;;;4.13;3.50;;;;;;;;;;6305945;28;20044;-86
2021/06/19 15:22:22;;;;;;;;;;;;;;;;;;6300372;28;20398;-85
2021/06/19 15:25:27;;;;;;;3.78;3.42;;;;;;;;;;6307178;28;20684;-85
2021/06/19 15:28:28;;;;;;;;;;;;;;;;;;6288086;28;20041;-85
2021/06/19 15:31:36;;;;;;;5.00;3.50;;;;;;;;;;6268426;28;20020;-85
2021/06/19 15:34:37;;;;;;;4.90;3.47;;;;;;;;;;6289748;28;20040;-85
2021/06/19 15:37:39;;;;;;;;;;;;;;;;;;6259407;28;20050;-85
2021/06/19 15:40:41;;;;;;;5.47;3.88;;;;;;;;;;6291314;28;20470;-85
2021/06/19 15:43:43;;;;;;;6.82;5.15;;;;;;;;;;6287516;28;20040;-86
2021/06/19 15:46:44;;;;;;;4.70;4.20;;;;;;;;;;6272366;28;20046;-84
2021/06/19 15:49:46;;;;;;;4.72;3.80;;;;;;;;;;6263659;28;20759;-84
2021/06/19 15:52:48;;;;;;;4.93;3.80;;;;;;;;;;6273156;28;20055;-86
2021/06/19 15:55:50;;;;;;;5.93;4.13;;;;;;;;;;6268810;28;20131;-86
2021/06/19 15:58:51;;;;;;;9.30;4.25;;;;;;;;;;6277305;28;20041;-86
2021/06/19 16:01:53;;;;;;;4.82;4.38;;;;;;;;;;6289475;28;20517;-85
2021/06/19 16:04:54;;;;;;;7.28;4.30;;;;;;;;;;6272296;28;20045;-85
2021/06/19 16:07:56;;;;;;;7.32;4.65;;;;;;;;;;6289371;28;20087;-86
2021/06/19 16:10:58;;;;;;;5.70;4.70;;;;;;;;;;6313377;28;20036;-86
2021/06/19 16:13:59;;;;;;;5.80;4.47;;;;;;;;;;6300242;28;20036;-85
2021/06/19 16:17:01;;;;;;;5.32;3.92;;;;;;;;;;6301975;28;20519;-86
2021/06/19 16:20:04;;;;;;;5.60;4.82;;;;;;;;;;6288716;28;20059;-85
2021/06/19 16:23:06;;;;;;;5.03;4.05;;;;;;;;;;6279005;28;20059;-86
2021/06/19 16:26:08;;;;;;;6.10;4.43;;;;;;;;;;6276338;28;20048;-86
2021/06/19 16:29:09;;;;;;;6.15;4.10;;;;;;;;;;6295887;28;20040;-85
2021/06/19 16:32:11;;;;;;;5.38;4.20;;;;;;;;;;6292988;28;20491;-85
2021/06/19 16:35:13;;;;;;;6.95;4.20;;;;;;;;;;6267161;28;20055;-85
2021/06/19 16:38:14;;;;;;;;;;;;;;;;;;6252887;28;20041;-85
2021/06/19 16:41:16;;;;;;;5.37;4.37;;;;;;;;;;6248299;28;19925;-86
2021/06/19 16:44:18;;;;;;;6.80;4.57;;;;;;;;;;6269738;28;20045;-85
2021/06/19 16:47:19;;;;;;;11.27;6.95;;;;;;;;;;6294843;28;20036;-85
2021/06/19 16:50:21;;;;;;;7.50;4.80;;;;;;;;;;6294053;28;20096;-85
2021/06/19 16:53:23;;;;;;;5.63;4.57;;;;;;;;;;6295165;28;20041;-85
2021/06/19 16:56:24;;;;;;;7.38;4.68;;;;;;;;;;6262491;28;20086;-84
2021/06/19 16:59:26;;;;;;;6.60;4.30;;;;;;;;;;6250789;28;20049;-85
2021/06/19 17:02:27;;;;;;;6.00;5.00;;;;;;;;;;6250860;28;20048;-86
2021/06/19 17:05:29;;;;;;;8.82;5.38;;;;;;;;;;6264282;28;20464;-85
2021/06/19 17:08:31;;;;;;;7.43;4.80;;;;;;;;;;6289486;28;20040;-86
2021/06/19 17:11:32;;;;;;;6.53;5.80;;;;;;;;;;6266658;28;20126;-87
2021/06/19 17:14:34;;;;;;;6.53;4.78;;;;;;;;;;6268539;28;20051;-87
2021/06/19 17:17:36;;;;;;;9.05;4.97;;;;;;;;;;6258521;28;20167;-87
2021/06/19 17:20:38;;;;;;;7.78;4.80;;;;;;;;;;6257485;28;20079;-87
2021/06/19 17:23:41;;;;;;;7.70;4.45;;;;;;;;;;6275124;28;20040;-85
2021/06/19 17:26:43;;;;;;;11.38;5.65;;;;;;;;;;6258288;28;20058;-85
2021/06/19 17:29:44;;;;;;;6.93;4.93;;;;;;;;;;6242860;28;20128;-86
2021/06/19 17:32:47;;;;;;;7.68;4.38;;;;;;;;;;6242925;28;20102;-85
2021/06/19 17:35:48;;;;;;;6.55;4.13;;;;;;;;;;6289273;28;20048;-85
2021/06/19 17:38:51;;;;;;;6.22;4.25;;;;;;;;;;6301875;28;20562;-86
2021/06/19 17:41:53;;;;;;;6.75;4.43;;;;;;;;;;6282949;28;20040;-85
2021/06/19 17:44:54;;;;;;;6.07;4.45;;;;;;;;;;6278808;28;20049;-87
2021/06/19 17:47:56;;;;;;;5.60;4.22;;;;;;;;;;6282462;28;20414;-88
2021/06/19 17:50:58;;;;;;;5.75;4.47;;;;;;;;;;6266629;28;20175;-86
2021/06/19 17:53:59;;;;;;;6.32;4.68;;;;;;;;;;6260395;28;20494;-87
2021/06/19 17:57:01;;;;;;;7.90;5.07;;;;;;;;;;6269679;28;20632;-86
2021/06/19 18:00:04;;;;;;;6.05;5.05;;;;;;;;;;6285884;28;20048;-87
2021/06/19 18:03:06;;;;;;;7.15;4.80;;;;;;;;;;6275077;28;20056;-86
2021/06/19 18:06:08;;;;;;;7.38;5.38;;;;;;;;;;6277099;28;20128;-86
2021/06/19 18:09:10;;;;;;;6.70;5.30;;;;;;;;;;6273573;28;20138;-85
2021/06/19 18:12:11;;;;;;;7.20;5.00;;;;;;;;;;6266569;28;20048;-86
2021/06/19 18:15:14;;;;;;;9.43;5.50;;;;;;;;;;6276703;28;20284;-87
2021/06/19 18:18:15;;;;;;;9.77;5.63;;;;;;;;;;6273001;28;20596;-86